sensor_id;sensor_type;location;lat;lon;timestamp;temperature;humidity
22112;DHT22;11222;50.872;4.312;2023-04-01T00:00:18;10.10;99.90
22112;DHT22;11222;50.872;4.312;2023-04-01T00:02:44;10.20;99.90
22112;DHT22;11222;50.872;4.312;2023-04-01T00:05:10;10.20;99.90
22112;DHT22;11222;50.872;4.312;2023-04-01T00:07:37;10.20;99.90
22112;DHT22;11222;50.872;4.312;2023-04-01T00:10:05;10.10;99.90
22112;DHT22;11222;50.872;4.312;2023-04-01T00:12:31;10.10;99.90
22112;DHT22;11222;50.872;4.312;2023-04-01T00:14:56;10.10;99.90
22112;DHT22;11222;50.872;4.312;2023-04-01T00:17:22;10.10;99.90
22112;DHT22;11222;50.872;4.312;2023-04-01T00:19:48;10.10;99.90
22112;DHT22;11222;50.872;4.312;2023-04-01T00:22:14;10.10;99.90
22112;DHT22;11222;50.872;4.312;2023-04-01T00:24:40;10.20;99.90
22112;DHT22;11222;50.872;4.312;2023-04-01T00:27:06;10.20;99.90
22112;DHT22;11222;50.872;4.312;2023-04-01T00:29:33;10.10;99.90
22112;DHT22;11222;50.872;4.312;2023-04-01T00:31:59;10.10;99.90
22112;DHT22;11222;50.872;4.312;2023-04-01T00:34:25;10.10;99.90
22112;DHT22;11222;50.872;4.312;2023-04-01T00:36:51;10.10;99.90
22112;DHT22;11222;50.872;4.312;2023-04-01T00:39:18;10.10;99.90
22112;DHT22;11222;50.872;4.312;2023-04-01T00:41:44;10.10;99.90
22112;DHT22;11222;50.872;4.312;2023-04-01T00:44:20;10.00;99.90
22112;DHT22;11222;50.872;4.312;2023-04-01T00:46:46;10.00;99.90
22112;DHT22;11222;50.872;4.312;2023-04-01T00:49:13;10.10;99.90
22112;DHT22;11222;50.872;4.312;2023-04-01T00:51:41;10.00;99.90
22112;DHT22;11222;50.872;4.312;2023-04-01T00:54:08;10.00;99.90
22112;DHT22;11222;50.872;4.312;2023-04-01T00:56:41;10.00;99.90
22112;DHT22;11222;50.872;4.312;2023-04-01T00:59:14;10.00;99.90
22112;DHT22;11222;50.872;4.312;2023-04-01T01:01:41;10.00;99.90
22112;DHT22;11222;50.872;4.312;2023-04-01T01:04:07;10.00;99.90
22112;DHT22;11222;50.872;4.312;2023-04-01T01:12:39;10.00;99.90
22112;DHT22;11222;50.872;4.312;2023-04-01T01:15:12;10.00;99.90
22112;DHT22;11222;50.872;4.312;2023-04-01T01:26:49;10.00;99.90
22112;DHT22;11222;50.872;4.312;2023-04-01T01:35:14;10.00;99.90
22112;DHT22;11222;50.872;4.312;2023-04-01T01:37:43;10.00;99.90
22112;DHT22;11222;50.872;4.312;2023-04-01T01:40:11;10.00;99.90
22112;DHT22;11222;50.872;4.312;2023-04-01T01:42:40;10.00;99.90
22112;DHT22;11222;50.872;4.312;2023-04-01T01:45:08;10.00;99.90
22112;DHT22;11222;50.872;4.312;2023-04-01T01:47:36;10.00;99.90
22112;DHT22;11222;50.872;4.312;2023-04-01T01:50:03;10.00;99.90
22112;DHT22;11222;50.872;4.312;2023-04-01T01:52:30;10.00;99.90
22112;DHT22;11222;50.872;4.312;2023-04-01T01:54:57;10.00;99.90
22112;DHT22;11222;50.872;4.312;2023-04-01T01:57:29;10.00;99.90
22112;DHT22;11222;50.872;4.312;2023-04-01T02:00:06;10.00;99.90
22112;DHT22;11222;50.872;4.312;2023-04-01T02:02:40;10.00;99.90
22112;DHT22;11222;50.872;4.312;2023-04-01T02:05:09;9.90;99.90
22112;DHT22;11222;50.872;4.312;2023-04-01T02:07:37;9.90;99.90
22112;DHT22;11222;50.872;4.312;2023-04-01T02:10:05;9.80;99.90
22112;DHT22;11222;50.872;4.312;2023-04-01T02:12:33;9.80;99.90
22112;DHT22;11222;50.872;4.312;2023-04-01T02:15:06;9.70;99.90
22112;DHT22;11222;50.872;4.312;2023-04-01T02:17:34;9.70;99.90
22112;DHT22;11222;50.872;4.312;2023-04-01T02:20:20;9.80;99.90
22112;DHT22;11222;50.872;4.312;2023-04-01T02:22:53;9.80;99.90
22112;DHT22;11222;50.872;4.312;2023-04-01T02:25:29;9.80;99.90
22112;DHT22;11222;50.872;4.312;2023-04-01T02:27:57;9.90;99.90
22112;DHT22;11222;50.872;4.312;2023-04-01T02:30:24;9.80;99.90
22112;DHT22;11222;50.872;4.312;2023-04-01T02:32:51;9.80;99.90
22112;DHT22;11222;50.872;4.312;2023-04-01T02:35:17;9.70;99.90
22112;DHT22;11222;50.872;4.312;2023-04-01T02:37:46;9.70;99.90
22112;DHT22;11222;50.872;4.312;2023-04-01T02:40:15;9.70;99.90
22112;DHT22;11222;50.872;4.312;2023-04-01T02:42:41;9.70;99.90
22112;DHT22;11222;50.872;4.312;2023-04-01T02:45:07;9.60;99.90
22112;DHT22;11222;50.872;4.312;2023-04-01T02:47:33;9.60;99.90
22112;DHT22;11222;50.872;4.312;2023-04-01T02:49:59;9.60;99.90
22112;DHT22;11222;50.872;4.312;2023-04-01T02:52:26;9.60;99.90
22112;DHT22;11222;50.872;4.312;2023-04-01T02:54:52;9.60;99.90
22112;DHT22;11222;50.872;4.312;2023-04-01T02:57:18;9.60;99.90
22112;DHT22;11222;50.872;4.312;2023-04-01T02:59:43;9.70;99.90
22112;DHT22;11222;50.872;4.312;2023-04-01T03:02:09;9.70;99.90
22112;DHT22;11222;50.872;4.312;2023-04-01T03:04:35;9.70;99.90
22112;DHT22;11222;50.872;4.312;2023-04-01T03:07:01;9.70;99.90
22112;DHT22;11222;50.872;4.312;2023-04-01T03:09:27;9.70;99.90
22112;DHT22;11222;50.872;4.312;2023-04-01T03:11:54;9.70;99.90
22112;DHT22;11222;50.872;4.312;2023-04-01T03:14:20;9.70;99.90
22112;DHT22;11222;50.872;4.312;2023-04-01T03:16:45;9.70;99.90
22112;DHT22;11222;50.872;4.312;2023-04-01T03:19:11;9.60;99.90
22112;DHT22;11222;50.872;4.312;2023-04-01T03:21:37;9.60;99.90
22112;DHT22;11222;50.872;4.312;2023-04-01T03:24:02;9.60;99.90
22112;DHT22;11222;50.872;4.312;2023-04-01T03:26:28;9.60;99.90
22112;DHT22;11222;50.872;4.312;2023-04-01T03:28:54;9.60;99.90
22112;DHT22;11222;50.872;4.312;2023-04-01T03:31:20;9.60;99.90
22112;DHT22;11222;50.872;4.312;2023-04-01T03:33:46;9.60;99.90
22112;DHT22;11222;50.872;4.312;2023-04-01T03:36:12;9.60;99.90
22112;DHT22;11222;50.872;4.312;2023-04-01T03:38:42;9.60;99.90
22112;DHT22;11222;50.872;4.312;2023-04-01T03:41:12;9.60;99.90
22112;DHT22;11222;50.872;4.312;2023-04-01T03:43:38;9.60;99.90
22112;DHT22;11222;50.872;4.312;2023-04-01T03:46:04;9.70;99.90
22112;DHT22;11222;50.872;4.312;2023-04-01T03:48:30;9.70;99.90
22112;DHT22;11222;50.872;4.312;2023-04-01T03:50:55;9.70;99.90
22112;DHT22;11222;50.872;4.312;2023-04-01T03:53:22;9.70;99.90
22112;DHT22;11222;50.872;4.312;2023-04-01T03:55:48;9.70;99.90
22112;DHT22;11222;50.872;4.312;2023-04-01T03:58:14;9.60;99.90
22112;DHT22;11222;50.872;4.312;2023-04-01T04:00:39;9.70;99.90
22112;DHT22;11222;50.872;4.312;2023-04-01T04:03:06;9.70;99.90
22112;DHT22;11222;50.872;4.312;2023-04-01T04:05:32;9.60;99.90
22112;DHT22;11222;50.872;4.312;2023-04-01T04:07:58;9.60;99.90
22112;DHT22;11222;50.872;4.312;2023-04-01T04:10:23;9.60;99.90
22112;DHT22;11222;50.872;4.312;2023-04-01T04:12:51;9.60;99.90
22112;DHT22;11222;50.872;4.312;2023-04-01T04:15:17;9.60;99.90
22112;DHT22;11222;50.872;4.312;2023-04-01T04:17:44;9.60;99.90
22112;DHT22;11222;50.872;4.312;2023-04-01T04:20:10;9.60;99.90
22112;DHT22;11222;50.872;4.312;2023-04-01T04:22:35;9.50;99.90
22112;DHT22;11222;50.872;4.312;2023-04-01T04:25:01;9.50;99.90
22112;DHT22;11222;50.872;4.312;2023-04-01T04:27:27;9.50;99.90
22112;DHT22;11222;50.872;4.312;2023-04-01T04:29:52;9.40;99.90
22112;DHT22;11222;50.872;4.312;2023-04-01T04:32:18;9.40;99.90
22112;DHT22;11222;50.872;4.312;2023-04-01T04:34:44;9.40;99.90
22112;DHT22;11222;50.872;4.312;2023-04-01T04:37:09;9.40;99.90
22112;DHT22;11222;50.872;4.312;2023-04-01T04:39:35;9.40;99.90
22112;DHT22;11222;50.872;4.312;2023-04-01T04:42:01;9.40;99.90
22112;DHT22;11222;50.872;4.312;2023-04-01T04:44:26;9.40;99.90
22112;DHT22;11222;50.872;4.312;2023-04-01T04:46:52;9.40;99.90
22112;DHT22;11222;50.872;4.312;2023-04-01T04:49:18;9.40;99.90
22112;DHT22;11222;50.872;4.312;2023-04-01T04:51:44;9.40;99.90
22112;DHT22;11222;50.872;4.312;2023-04-01T04:54:09;9.40;99.90
22112;DHT22;11222;50.872;4.312;2023-04-01T04:56:35;9.40;99.90
22112;DHT22;11222;50.872;4.312;2023-04-01T04:59:01;9.40;99.90
22112;DHT22;11222;50.872;4.312;2023-04-01T05:01:27;9.40;99.90
22112;DHT22;11222;50.872;4.312;2023-04-01T05:03:53;9.40;99.90
22112;DHT22;11222;50.872;4.312;2023-04-01T05:06:19;9.40;99.90
22112;DHT22;11222;50.872;4.312;2023-04-01T05:08:45;9.50;99.90
22112;DHT22;11222;50.872;4.312;2023-04-01T05:11:16;9.50;99.90
22112;DHT22;11222;50.872;4.312;2023-04-01T05:13:43;9.50;99.90
22112;DHT22;11222;50.872;4.312;2023-04-01T05:16:16;9.50;99.90
22112;DHT22;11222;50.872;4.312;2023-04-01T05:18:42;9.40;99.90
22112;DHT22;11222;50.872;4.312;2023-04-01T05:21:10;9.40;99.90
22112;DHT22;11222;50.872;4.312;2023-04-01T05:23:36;9.40;99.90
22112;DHT22;11222;50.872;4.312;2023-04-01T05:26:11;9.40;99.90
22112;DHT22;11222;50.872;4.312;2023-04-01T05:28:37;9.40;99.90
22112;DHT22;11222;50.872;4.312;2023-04-01T05:31:04;9.40;99.90
22112;DHT22;11222;50.872;4.312;2023-04-01T05:33:31;9.40;99.90
22112;DHT22;11222;50.872;4.312;2023-04-01T05:36:08;9.40;99.90
22112;DHT22;11222;50.872;4.312;2023-04-01T05:38:34;9.40;99.90
22112;DHT22;11222;50.872;4.312;2023-04-01T05:41:01;9.40;99.90
22112;DHT22;11222;50.872;4.312;2023-04-01T05:43:27;9.30;99.90
22112;DHT22;11222;50.872;4.312;2023-04-01T05:45:53;9.40;99.90
22112;DHT22;11222;50.872;4.312;2023-04-01T05:48:19;9.40;99.90
22112;DHT22;11222;50.872;4.312;2023-04-01T05:50:44;9.30;99.90
22112;DHT22;11222;50.872;4.312;2023-04-01T05:53:10;9.30;99.90
22112;DHT22;11222;50.872;4.312;2023-04-01T05:55:36;9.40;99.90
22112;DHT22;11222;50.872;4.312;2023-04-01T05:58:02;9.40;99.90
22112;DHT22;11222;50.872;4.312;2023-04-01T06:00:27;9.50;99.90
22112;DHT22;11222;50.872;4.312;2023-04-01T06:02:53;9.40;99.90
22112;DHT22;11222;50.872;4.312;2023-04-01T06:05:22;9.40;99.90
22112;DHT22;11222;50.872;4.312;2023-04-01T06:07:48;9.40;99.90
22112;DHT22;11222;50.872;4.312;2023-04-01T06:10:18;9.40;99.90
22112;DHT22;11222;50.872;4.312;2023-04-01T06:13:26;9.40;99.90
22112;DHT22;11222;50.872;4.312;2023-04-01T06:18:52;9.40;99.90
22112;DHT22;11222;50.872;4.312;2023-04-01T06:22:01;9.40;99.90
22112;DHT22;11222;50.872;4.312;2023-04-01T06:25:02;9.40;99.90
22112;DHT22;11222;50.872;4.312;2023-04-01T06:38:47;9.40;99.90
22112;DHT22;11222;50.872;4.312;2023-04-01T06:44:16;9.40;99.90
22112;DHT22;11222;50.872;4.312;2023-04-01T06:54:48;9.40;99.90
22112;DHT22;11222;50.872;4.312;2023-04-01T06:59:41;9.50;99.90
22112;DHT22;11222;50.872;4.312;2023-04-01T07:04:39;9.50;99.90
22112;DHT22;11222;50.872;4.312;2023-04-01T07:07:27;9.50;99.90
22112;DHT22;11222;50.872;4.312;2023-04-01T07:09:56;9.50;99.90
22112;DHT22;11222;50.872;4.312;2023-04-01T07:14:56;9.60;99.90
22112;DHT22;11222;50.872;4.312;2023-04-01T07:17:28;9.60;99.90
22112;DHT22;11222;50.872;4.312;2023-04-01T07:20:11;9.60;99.90
22112;DHT22;11222;50.872;4.312;2023-04-01T07:22:51;9.70;99.90
22112;DHT22;11222;50.872;4.312;2023-04-01T07:25:21;9.60;99.90
22112;DHT22;11222;50.872;4.312;2023-04-01T07:27:48;9.60;99.90
22112;DHT22;11222;50.872;4.312;2023-04-01T07:30:17;9.60;99.90
22112;DHT22;11222;50.872;4.312;2023-04-01T07:35:26;9.70;99.90
22112;DHT22;11222;50.872;4.312;2023-04-01T07:51:43;9.70;99.90
22112;DHT22;11222;50.872;4.312;2023-04-01T08:05:25;9.60;99.90
22112;DHT22;11222;50.872;4.312;2023-04-01T08:10:49;9.70;99.90
22112;DHT22;11222;50.872;4.312;2023-04-01T08:13:33;9.80;99.90
22112;DHT22;11222;50.872;4.312;2023-04-01T08:16:09;9.80;99.90
22112;DHT22;11222;50.872;4.312;2023-04-01T08:21:35;9.70;99.90
22112;DHT22;11222;50.872;4.312;2023-04-01T08:26:57;9.90;99.90
22112;DHT22;11222;50.872;4.312;2023-04-01T08:32:37;9.90;99.90
22112;DHT22;11222;50.872;4.312;2023-04-01T08:35:18;9.90;99.90
22112;DHT22;11222;50.872;4.312;2023-04-01T08:37:45;10.00;99.90
22112;DHT22;11222;50.872;4.312;2023-04-01T08:43:19;10.00;99.90
22112;DHT22;11222;50.872;4.312;2023-04-01T08:46:02;10.00;99.90
22112;DHT22;11222;50.872;4.312;2023-04-01T08:54:30;10.00;99.90
22112;DHT22;11222;50.872;4.312;2023-04-01T08:57:20;10.10;99.90
22112;DHT22;11222;50.872;4.312;2023-04-01T09:11:30;10.20;99.90
22112;DHT22;11222;50.872;4.312;2023-04-01T09:19:49;10.00;99.90
22112;DHT22;11222;50.872;4.312;2023-04-01T09:28:33;10.20;99.90
22112;DHT22;11222;50.872;4.312;2023-04-01T09:34:10;10.10;99.90
22112;DHT22;11222;50.872;4.312;2023-04-01T09:45:39;10.40;99.90
22112;DHT22;11222;50.872;4.312;2023-04-01T09:56:23;10.30;99.90
22112;DHT22;11222;50.872;4.312;2023-04-01T10:07:39;10.60;99.90
22112;DHT22;11222;50.872;4.312;2023-04-01T10:26:33;10.90;99.90
22112;DHT22;11222;50.872;4.312;2023-04-01T10:46:33;11.20;99.90
22112;DHT22;11222;50.872;4.312;2023-04-01T10:52:23;11.30;99.90
22112;DHT22;11222;50.872;4.312;2023-04-01T11:21:11;11.20;99.90
22112;DHT22;11222;50.872;4.312;2023-04-01T11:37:38;11.10;99.90
22112;DHT22;11222;50.872;4.312;2023-04-01T11:40:20;11.00;99.90
22112;DHT22;11222;50.872;4.312;2023-04-01T11:43:24;11.20;99.90
22112;DHT22;11222;50.872;4.312;2023-04-01T11:46:11;11.30;99.90
22112;DHT22;11222;50.872;4.312;2023-04-01T11:49:02;11.20;99.90
22112;DHT22;11222;50.872;4.312;2023-04-01T11:57:10;11.20;99.90
22112;DHT22;11222;50.872;4.312;2023-04-01T12:41:03;10.40;99.90
22112;DHT22;11222;50.872;4.312;2023-04-01T13:11:27;10.40;99.90
22112;DHT22;11222;50.872;4.312;2023-04-01T13:17:06;10.50;99.90
22112;DHT22;11222;50.872;4.312;2023-04-01T13:27:44;10.60;99.90
22112;DHT22;11222;50.872;4.312;2023-04-01T13:30:28;10.60;99.90
22112;DHT22;11222;50.872;4.312;2023-04-01T13:38:38;10.50;99.90
22112;DHT22;11222;50.872;4.312;2023-04-01T13:41:11;10.50;99.90
22112;DHT22;11222;50.872;4.312;2023-04-01T13:43:52;10.50;99.90
22112;DHT22;11222;50.872;4.312;2023-04-01T13:46:46;10.70;99.90
22112;DHT22;11222;50.872;4.312;2023-04-01T14:05:59;11.10;99.90
22112;DHT22;11222;50.872;4.312;2023-04-01T14:08:43;11.40;99.90
22112;DHT22;11222;50.872;4.312;2023-04-01T14:11:36;11.50;99.90
22112;DHT22;11222;50.872;4.312;2023-04-01T14:31:31;11.20;99.90
22112;DHT22;11222;50.872;4.312;2023-04-01T14:42:31;10.40;99.90
22112;DHT22;11222;50.872;4.312;2023-04-01T14:50:18;10.60;99.90
22112;DHT22;11222;50.872;4.312;2023-04-01T14:52:58;10.60;99.90
22112;DHT22;11222;50.872;4.312;2023-04-01T14:55:36;10.70;99.90
22112;DHT22;11222;50.872;4.312;2023-04-01T14:58:17;10.70;99.90
22112;DHT22;11222;50.872;4.312;2023-04-01T15:38:36;10.50;99.90
22112;DHT22;11222;50.872;4.312;2023-04-01T15:41:16;10.50;99.90
22112;DHT22;11222;50.872;4.312;2023-04-01T15:43:47;10.50;99.90
22112;DHT22;11222;50.872;4.312;2023-04-01T15:49:30;10.50;99.90
22112;DHT22;11222;50.872;4.312;2023-04-01T15:52:24;10.50;99.90
22112;DHT22;11222;50.872;4.312;2023-04-01T16:00:46;10.20;99.90
22112;DHT22;11222;50.872;4.312;2023-04-01T16:19:54;10.00;99.90
22112;DHT22;11222;50.872;4.312;2023-04-01T16:25:20;10.00;99.90
22112;DHT22;11222;50.872;4.312;2023-04-01T16:30:48;10.00;99.90
22112;DHT22;11222;50.872;4.312;2023-04-01T16:36:41;10.00;99.90
22112;DHT22;11222;50.872;4.312;2023-04-01T16:47:40;9.90;99.90
22112;DHT22;11222;50.872;4.312;2023-04-01T16:55:18;9.80;99.90
22112;DHT22;11222;50.872;4.312;2023-04-01T16:57:52;9.90;99.90
22112;DHT22;11222;50.872;4.312;2023-04-01T17:00:36;10.00;99.90
22112;DHT22;11222;50.872;4.312;2023-04-01T17:03:14;9.80;99.90
22112;DHT22;11222;50.872;4.312;2023-04-01T17:11:27;9.90;99.90
22112;DHT22;11222;50.872;4.312;2023-04-01T17:17:27;9.90;99.90
22112;DHT22;11222;50.872;4.312;2023-04-01T17:25:41;9.80;99.90
22112;DHT22;11222;50.872;4.312;2023-04-01T17:28:49;9.80;99.90
22112;DHT22;11222;50.872;4.312;2023-04-01T17:33:57;9.70;99.90
22112;DHT22;11222;50.872;4.312;2023-04-01T17:37:04;9.70;99.90
22112;DHT22;11222;50.872;4.312;2023-04-01T17:40:28;9.70;99.90
22112;DHT22;11222;50.872;4.312;2023-04-01T17:45:40;9.80;99.90
22112;DHT22;11222;50.872;4.312;2023-04-01T17:49:19;9.80;99.90
22112;DHT22;11222;50.872;4.312;2023-04-01T17:51:18;9.70;99.90
22112;DHT22;11222;50.872;4.312;2023-04-01T17:56:39;9.70;99.90
22112;DHT22;11222;50.872;4.312;2023-04-01T17:59:37;9.70;99.90
22112;DHT22;11222;50.872;4.312;2023-04-01T18:02:29;9.80;99.90
22112;DHT22;11222;50.872;4.312;2023-04-01T18:05:25;9.70;99.90
22112;DHT22;11222;50.872;4.312;2023-04-01T18:10:56;9.80;99.90
22112;DHT22;11222;50.872;4.312;2023-04-01T18:19:27;9.80;99.90
22112;DHT22;11222;50.872;4.312;2023-04-01T18:30:39;9.90;99.90
22112;DHT22;11222;50.872;4.312;2023-04-01T18:32:49;9.90;99.90
22112;DHT22;11222;50.872;4.312;2023-04-01T18:35:45;9.80;99.90
22112;DHT22;11222;50.872;4.312;2023-04-01T18:38:25;9.70;99.90
22112;DHT22;11222;50.872;4.312;2023-04-01T18:46:41;9.80;99.90
22112;DHT22;11222;50.872;4.312;2023-04-01T18:49:52;9.90;99.90
22112;DHT22;11222;50.872;4.312;2023-04-01T18:52:34;9.80;99.90
22112;DHT22;11222;50.872;4.312;2023-04-01T18:57:46;9.80;99.90
22112;DHT22;11222;50.872;4.312;2023-04-01T19:00:26;9.80;99.90
22112;DHT22;11222;50.872;4.312;2023-04-01T19:03:20;9.70;99.90
22112;DHT22;11222;50.872;4.312;2023-04-01T19:05:49;9.70;99.90
22112;DHT22;11222;50.872;4.312;2023-04-01T19:13:51;9.80;99.90
22112;DHT22;11222;50.872;4.312;2023-04-01T19:21:57;9.60;99.90
22112;DHT22;11222;50.872;4.312;2023-04-01T19:24:45;9.60;99.90
22112;DHT22;11222;50.872;4.312;2023-04-01T19:27:37;9.60;99.90
22112;DHT22;11222;50.872;4.312;2023-04-01T19:35:41;9.50;99.90
22112;DHT22;11222;50.872;4.312;2023-04-01T19:46:51;9.80;99.90
22112;DHT22;11222;50.872;4.312;2023-04-01T19:49:36;9.70;99.90
22112;DHT22;11222;50.872;4.312;2023-04-01T19:52:06;9.70;99.90
22112;DHT22;11222;50.872;4.312;2023-04-01T20:02:48;9.60;99.90
22112;DHT22;11222;50.872;4.312;2023-04-01T20:05:22;9.60;99.90
22112;DHT22;11222;50.872;4.312;2023-04-01T20:07:52;9.60;99.90
22112;DHT22;11222;50.872;4.312;2023-04-01T20:13:21;9.70;99.90
22112;DHT22;11222;50.872;4.312;2023-04-01T20:16:20;9.60;99.90
22112;DHT22;11222;50.872;4.312;2023-04-01T20:18:58;9.70;99.90
22112;DHT22;11222;50.872;4.312;2023-04-01T20:24:00;9.80;99.90
22112;DHT22;11222;50.872;4.312;2023-04-01T20:26:39;9.80;99.90
22112;DHT22;11222;50.872;4.312;2023-04-01T20:32:40;9.70;99.90
22112;DHT22;11222;50.872;4.312;2023-04-01T20:38:06;9.70;99.90
22112;DHT22;11222;50.872;4.312;2023-04-01T20:40:35;9.70;99.90
22112;DHT22;11222;50.872;4.312;2023-04-01T20:43:24;9.70;99.90
22112;DHT22;11222;50.872;4.312;2023-04-01T20:46:14;9.70;99.90
22112;DHT22;11222;50.872;4.312;2023-04-01T20:51:31;9.80;99.90
22112;DHT22;11222;50.872;4.312;2023-04-01T21:07:58;9.60;99.90
22112;DHT22;11222;50.872;4.312;2023-04-01T21:11:01;9.60;99.90
22112;DHT22;11222;50.872;4.312;2023-04-01T21:13:54;9.60;99.90
22112;DHT22;11222;50.872;4.312;2023-04-01T21:16:38;9.60;99.90
22112;DHT22;11222;50.872;4.312;2023-04-01T21:19:37;9.70;99.90
22112;DHT22;11222;50.872;4.312;2023-04-01T21:30:44;9.60;99.90
22112;DHT22;11222;50.872;4.312;2023-04-01T21:33:22;9.60;99.90
22112;DHT22;11222;50.872;4.312;2023-04-01T21:44:43;9.60;99.90
22112;DHT22;11222;50.872;4.312;2023-04-01T21:56:22;9.70;99.90
22112;DHT22;11222;50.872;4.312;2023-04-01T22:04:55;9.50;99.90
22112;DHT22;11222;50.872;4.312;2023-04-01T22:07:23;9.60;99.90
22112;DHT22;11222;50.872;4.312;2023-04-01T22:09:52;9.60;99.90
22112;DHT22;11222;50.872;4.312;2023-04-01T22:17:56;9.60;99.90
22112;DHT22;11222;50.872;4.312;2023-04-01T22:20:36;9.70;99.90
22112;DHT22;11222;50.872;4.312;2023-04-01T22:25:50;9.70;99.90
22112;DHT22;11222;50.872;4.312;2023-04-01T22:28:47;9.70;99.90
22112;DHT22;11222;50.872;4.312;2023-04-01T22:31:19;9.70;99.90
22112;DHT22;11222;50.872;4.312;2023-04-01T22:34:10;9.70;99.90
22112;DHT22;11222;50.872;4.312;2023-04-01T22:36:40;9.60;99.90
22112;DHT22;11222;50.872;4.312;2023-04-01T22:50:03;9.70;99.90
22112;DHT22;11222;50.872;4.312;2023-04-01T22:52:41;9.60;99.90
22112;DHT22;11222;50.872;4.312;2023-04-01T22:55:26;9.60;99.90
22112;DHT22;11222;50.872;4.312;2023-04-01T22:58:05;9.60;99.90
22112;DHT22;11222;50.872;4.312;2023-04-01T23:00:56;9.70;99.90
22112;DHT22;11222;50.872;4.312;2023-04-01T23:03:35;9.70;99.90
22112;DHT22;11222;50.872;4.312;2023-04-01T23:06:05;9.70;99.90
22112;DHT22;11222;50.872;4.312;2023-04-01T23:11:06;9.50;99.90
22112;DHT22;11222;50.872;4.312;2023-04-01T23:13:43;9.50;99.90
22112;DHT22;11222;50.872;4.312;2023-04-01T23:16:11;9.50;99.90
22112;DHT22;11222;50.872;4.312;2023-04-01T23:22:38;9.50;99.90
22112;DHT22;11222;50.872;4.312;2023-04-01T23:26:07;9.40;99.90
22112;DHT22;11222;50.872;4.312;2023-04-01T23:30:46;9.40;99.90
22112;DHT22;11222;50.872;4.312;2023-04-01T23:36:01;9.30;99.90
22112;DHT22;11222;50.872;4.312;2023-04-01T23:38:34;9.40;99.90
22112;DHT22;11222;50.872;4.312;2023-04-01T23:41:01;9.40;99.90
22112;DHT22;11222;50.872;4.312;2023-04-01T23:43:31;9.30;99.90
22112;DHT22;11222;50.872;4.312;2023-04-01T23:45:59;9.40;99.90
22112;DHT22;11222;50.872;4.312;2023-04-01T23:48:44;9.40;99.90
22112;DHT22;11222;50.872;4.312;2023-04-01T23:51:26;9.30;99.90
22112;DHT22;11222;50.872;4.312;2023-04-01T23:54:10;9.20;99.90
22112;DHT22;11222;50.872;4.312;2023-04-01T23:56:44;9.20;99.90
22112;DHT22;11222;50.872;4.312;2023-04-01T23:59:17;9.20;99.90
